Time;durP1;ratioP1;P1;durP2;ratioP2;P2;SDS_P1;SDS_P2;PMS_P1;PMS_P2;Temp;Humidity;BMP_temperature;BMP_pressure;BME280_temperature;BME280_humidity;BME280_pressure;Samples;Min_cycle;Max_cycle;Signal;HPM_P1;HPM_P2
2023/01/08 00:00:47;;;;;;;;;;;;;;;;;;5019431;28;93157;-38
2023/01/08 00:03:13;;;;;;;;;;;;;;;;;;5020184;28;92271;-38
2023/01/08 00:05:39;;;;;;;;;;;;;;;;;;5019987;28;92456;-38
2023/01/08 00:08:07;;;;;;;;;;;;;;;;;;5019331;28;92976;-38
2023/01/08 00:10:33;;;;;;;;;;;;;;;;;;5022498;28;93295;-38
2023/01/08 00:12:58;;;;;;;;;;;;;;;;;;5018497;28;93974;-38
2023/01/08 00:15:24;;;;;;;;;;;;;;;;;;5019815;28;92234;-38
2023/01/08 00:17:50;;;;;;;;;;;;;;;;;;5019713;28;92046;-38
2023/01/08 00:20:16;;;;;;;;;;;;;;;;;;5019020;28;93174;-38
2023/01/08 00:22:42;;;;;;;;;;;;;;;;;;5019473;28;92203;-38
2023/01/08 00:25:08;;;;;;;;;;;;;;;;;;5019542;28;92140;-38
2023/01/08 00:27:34;;;;;;;;;;;;;;;;;;5019169;28;93176;-38
2023/01/08 00:30:00;;;;;;;;;;;;;;;;;;5019919;28;91423;-38
2023/01/08 00:32:26;;;;;;;;;;;;;;;;;;5022106;28;92057;-38
2023/01/08 00:34:53;;;;;;;;;;;;;;;;;;5019205;28;92249;-38
2023/01/08 00:37:19;;;;;;;;;;;;;;;;;;5018799;28;93207;-38
2023/01/08 00:39:45;;;;;;;;;;;;;;;;;;5018906;28;93125;-38
2023/01/08 00:42:11;;;;;;;;;;;;;;;;;;5000587;28;92207;-38
2023/01/08 00:44:37;;;;;;;;;;;;;;;;;;5019257;28;92090;-38
2023/01/08 00:47:02;;;;;;;;;;;;;;;;;;5018736;28;93156;-38
2023/01/08 00:49:28;;;;;;;;;;;;;;;;;;5019019;28;92289;-38
2023/01/08 00:51:54;;;;;;;;;;;;;;;;;;5021524;28;93664;-38
2023/01/08 00:54:20;;;;;;;;;;;;;;;;;;5019726;28;91507;-37
2023/01/08 00:56:46;;;;;;;;;;;;;;;;;;5019366;28;92005;-38
2023/01/08 00:59:12;;;;;;;;;;;;;;;;;;5018704;28;93344;-38
2023/01/08 01:01:38;;;;;;;;;;;;;;;;;;5018200;28;92891;-38
2023/01/08 01:04:04;;;;;;;;;;;;;;;;;;5018830;28;92851;-38
2023/01/08 01:06:30;;;;;;;;;;;;;;;;;;5018539;28;92956;-38
2023/01/08 01:08:56;;;;;;;;;;;;;;;;;;5019140;28;92667;-38
2023/01/08 01:11:22;;;;;;;;;;;;;;;;;;5021953;28;92134;-38
2023/01/08 01:13:48;;;;;;;;;;;;;;;;;;5025153;28;93050;-38
2023/01/08 01:16:13;;;;;;;;;;;;;;;;;;5022631;28;92038;-38
2023/01/08 01:18:39;;;;;;;;;;;;;;;;;;5022035;28;92438;-38
2023/01/08 01:21:05;;;;;;;;;;;;;;;;;;5022448;28;92340;-37
2023/01/08 01:23:31;;;;;;;;;;;;;;;;;;5022369;28;91921;-37
2023/01/08 01:25:57;;;;;;;;;;;;;;;;;;5021257;28;94115;-38
2023/01/08 01:28:23;;;;;;;;;;;;;;;;;;5022382;28;92204;-38
2023/01/08 01:30:49;;;;;;;;;;;;;;;;;;5022449;28;91897;-38
2023/01/08 01:33:14;;;;;;;;;;;;;;;;;;5021707;28;93083;-38
2023/01/08 01:35:40;;;;;;;;;;;;;;;;;;5006980;28;92057;-38
2023/01/08 01:38:06;;;;;;;;;;;;;;;;;;5021714;28;93218;-37
2023/01/08 01:40:32;;;;;;;;;;;;;;;;;;5022084;28;92152;-37
2023/01/08 01:42:58;;;;;;;;;;;;;;;;;;5022222;28;92100;-38
2023/01/08 01:45:25;;;;;;;;;;;;;;;;;;5021514;28;93242;-38
2023/01/08 01:47:51;;;;;;;;;;;;;;;;;;5021759;28;92144;-38
2023/01/08 01:50:16;;;;;;;;;;;;;;;;;;5021117;28;92992;-38
2023/01/08 01:52:42;;;;;;;;;;;;;;;;;;5021518;28;92955;-38
2023/01/08 01:55:08;;;;;;;;;;;;;;;;;;5003680;28;92418;-38
2023/01/08 01:57:34;;;;;;;;;;;;;;;;;;5024450;28;92025;-38
2023/01/08 02:00:00;;;;;;;;;;;;;;;;;;5021732;28;92376;-38
2023/01/08 02:02:26;;;;;;;;;;;;;;;;;;5021903;28;92100;-37
2023/01/08 02:04:52;;;;;;;;;;;;;;;;;;5021279;28;92986;-38
2023/01/08 02:07:18;;;;;;;;;;;;;;;;;;5022302;28;91518;-38
2023/01/08 02:09:43;;;;;;;;;;;;;;;;;;5021830;28;92011;-38
2023/01/08 02:12:15;;;;;;;;;;;;;;;;;;5021034;28;93089;-38
2023/01/08 02:14:41;;;;;;;;;;;;;;;;;;5020676;28;93152;-37
2023/01/08 02:17:07;;;;;;;;;;;;;;;;;;5021482;28;92085;-38
2023/01/08 02:19:33;;;;;;;;;;;;;;;;;;5023765;28;94542;-38
2023/01/08 02:22:00;;;;;;;;;;;;;;;;;;5021199;28;91953;-38
2023/01/08 02:24:26;;;;;;;;;;;;;;;;;;5020761;28;94553;-38
2023/01/08 02:26:52;;;;;;;;;;;;;;;;;;5021620;28;92217;-38
2023/01/08 02:29:18;;;;;;;;;;;;;;;;;;5021498;28;92148;-38
2023/01/08 02:31:44;;;;;;;;;;;;;;;;;;5021179;28;92209;-38
2023/01/08 02:34:10;;;;;;;;;;;;;;;;;;5021147;28;92179;-38
2023/01/08 02:36:36;;;;;;;;;;;;;;;;;;5021581;28;92055;-38
2023/01/08 02:39:02;;;;;;;;;;;;;;;;;;5020063;28;94093;-38
2023/01/08 02:41:27;;;;;;;;;;;;;;;;;;5024000;28;92199;-38
2023/01/08 02:43:53;;;;;;;;;;;;;;;;;;5020674;28;93299;-37
2023/01/08 02:46:19;;;;;;;;;;;;;;;;;;5021012;28;92613;-37
2023/01/08 02:48:45;;;;;;;;;;;;;;;;;;5020813;28;92161;-37
2023/01/08 02:51:11;;;;;;;;;;;;;;;;;;5020594;28;93288;-37
2023/01/08 02:53:37;;;;;;;;;;;;;;;;;;5020971;28;92283;-38
2023/01/08 02:56:03;;;;;;;;;;;;;;;;;;5021513;28;91903;-37
2023/01/08 02:58:29;;;;;;;;;;;;;;;;;;5020378;28;93085;-38
2023/01/08 03:00:54;;;;;;;;;;;;;;;;;;5024122;28;92227;-38
2023/01/08 03:03:20;;;;;;;;;;;;;;;;;;5019463;28;94053;-38
2023/01/08 03:05:46;;;;;;;;;;;;;;;;;;5020802;28;92153;-37
2023/01/08 03:08:12;;;;;;;;;;;;;;;;;;5020686;28;92435;-37
2023/01/08 03:10:38;;;;;;;;;;;;;;;;;;5019869;28;93382;-37
2023/01/08 03:13:04;;;;;;;;;;;;;;;;;;5020688;28;92275;-37
2023/01/08 03:15:30;;;;;;;;;;;;;;;;;;5020571;28;92065;-37
2023/01/08 03:17:56;;;;;;;;;;;;;;;;;;5020076;28;93016;-37
2023/01/08 03:20:21;;;;;;;;;;;;;;;;;;5020959;28;91299;-37
2023/01/08 03:22:47;;;;;;;;;;;;;;;;;;5023225;28;92017;-38
2023/01/08 03:25:13;;;;;;;;;;;;;;;;;;5020451;28;92176;-38
2023/01/08 03:27:39;;;;;;;;;;;;;;;;;;5019865;28;92976;-37
2023/01/08 03:30:05;;;;;;;;;;;;;;;;;;5019780;28;93281;-37
2023/01/08 03:32:31;;;;;;;;;;;;;;;;;;5019241;28;92259;-37
2023/01/08 03:34:57;;;;;;;;;;;;;;;;;;5020549;28;92040;-38
2023/01/08 03:37:22;;;;;;;;;;;;;;;;;;5019852;28;93054;-38
2023/01/08 03:39:48;;;;;;;;;;;;;;;;;;5020175;28;92405;-37
2023/01/08 03:42:14;;;;;;;;;;;;;;;;;;5019752;28;92189;-37
2023/01/08 03:44:40;;;;;;;;;;;;;;;;;;5023162;28;92278;-37
2023/01/08 03:47:06;;;;;;;;;;;;;;;;;;5020304;28;91981;-37
2023/01/08 03:49:32;;;;;;;;;;;;;;;;;;5019421;28;93248;-38
2023/01/08 03:51:58;;;;;;;;;;;;;;;;;;5019529;28;93209;-37
2023/01/08 03:54:24;;;;;;;;;;;;;;;;;;5020072;28;92936;-37
2023/01/08 03:56:49;;;;;;;;;;;;;;;;;;5019542;28;93200;-37
2023/01/08 03:59:15;;;;;;;;;;;;;;;;;;5019878;28;92222;-37
2023/01/08 04:01:41;;;;;;;;;;;;;;;;;;5019917;28;91969;-37
2023/01/08 04:04:07;;;;;;;;;;;;;;;;;;5019345;28;93607;-37
2023/01/08 04:06:33;;;;;;;;;;;;;;;;;;5023100;28;92259;-37
2023/01/08 04:08:59;;;;;;;;;;;;;;;;;;5020002;28;91380;-37
2023/01/08 04:11:25;;;;;;;;;;;;;;;;;;5019554;28;93413;-37
2023/01/08 04:13:51;;;;;;;;;;;;;;;;;;5019800;28;92027;-37
2023/01/08 04:16:16;;;;;;;;;;;;;;;;;;5018422;28;94013;-38
2023/01/08 04:18:42;;;;;;;;;;;;;;;;;;5019566;28;92156;-37
2023/01/08 04:21:08;;;;;;;;;;;;;;;;;;5019683;28;91942;-37
2023/01/08 04:23:34;;;;;;;;;;;;;;;;;;5019170;28;93120;-38
2023/01/08 04:26:00;;;;;;;;;;;;;;;;;;5019681;28;92163;-38
2023/01/08 04:28:26;;;;;;;;;;;;;;;;;;5022340;28;92004;-37
2023/01/08 04:30:52;;;;;;;;;;;;;;;;;;5019470;28;92222;-37
2023/01/08 04:33:17;;;;;;;;;;;;;;;;;;5019864;28;91740;-37
2023/01/08 04:35:43;;;;;;;;;;;;;;;;;;5018841;28;92890;-37
2023/01/08 04:38:09;;;;;;;;;;;;;;;;;;5019534;28;92268;-37
2023/01/08 04:40:35;;;;;;;;;;;;;;;;;;5018652;28;92896;-37
2023/01/08 04:43:01;;;;;;;;;;;;;;;;;;5018675;28;93119;-37
2023/01/08 04:45:27;;;;;;;;;;;;;;;;;;5019191;28;92068;-37
2023/01/08 04:47:53;;;;;;;;;;;;;;;;;;5021917;28;92085;-37
2023/01/08 04:50:19;;;;;;;;;;;;;;;;;;5019285;28;92363;-37
2023/01/08 04:52:44;;;;;;;;;;;;;;;;;;5019176;28;91967;-37
2023/01/08 04:55:10;;;;;;;;;;;;;;;;;;5018601;28;93212;-37
2023/01/08 04:57:36;;;;;;;;;;;;;;;;;;5019756;28;91365;-38
2023/01/08 05:00:02;;;;;;;;;;;;;;;;;;5019178;28;92048;-37
2023/01/08 05:02:28;;;;;;;;;;;;;;;;;;5018544;28;93164;-37
2023/01/08 05:04:54;;;;;;;;;;;;;;;;;;5018438;28;93128;-37
2023/01/08 05:07:20;;;;;;;;;;;;;;;;;;5018997;28;93323;-37
2023/01/08 05:09:45;;;;;;;;;;;;;;;;;;5021445;28;93201;-37
2023/01/08 05:12:11;;;;;;;;;;;;;;;;;;5018958;28;92027;-37
2023/01/08 05:14:37;;;;;;;;;;;;;;;;;;5018488;28;93145;-37
2023/01/08 05:17:03;;;;;;;;;;;;;;;;;;5018672;28;92186;-37
2023/01/08 05:19:29;;;;;;;;;;;;;;;;;;5018587;28;93558;-37
2023/01/08 05:21:55;;;;;;;;;;;;;;;;;;5019035;28;92361;-37
2023/01/08 05:24:21;;;;;;;;;;;;;;;;;;5018893;28;92243;-37
2023/01/08 05:26:47;;;;;;;;;;;;;;;;;;5018845;28;92015;-37
2023/01/08 05:29:12;;;;;;;;;;;;;;;;;;5017571;28;93856;-37
2023/01/08 05:31:38;;;;;;;;;;;;;;;;;;5021818;28;92226;-37
2023/01/08 05:34:04;;;;;;;;;;;;;;;;;;5018488;28;92143;-38
2023/01/08 05:36:30;;;;;;;;;;;;;;;;;;5018767;28;92217;-37
2023/01/08 05:38:56;;;;;;;;;;;;;;;;;;5018709;28;92132;-37
2023/01/08 05:41:22;;;;;;;;;;;;;;;;;;5017689;28;93044;-37
2023/01/08 05:43:48;;;;;;;;;;;;;;;;;;5018790;28;92021;-37
2023/01/08 05:46:14;;;;;;;;;;;;;;;;;;5018979;28;91901;-37
2023/01/08 05:48:39;;;;;;;;;;;;;;;;;;5018111;28;93587;-37
2023/01/08 05:51:05;;;;;;;;;;;;;;;;;;5018647;28;92179;-37
2023/01/08 05:53:31;;;;;;;;;;;;;;;;;;5020575;28;92955;-37
2023/01/08 05:55:57;;;;;;;;;;;;;;;;;;5019594;28;92163;-37
2023/01/08 05:58:23;;;;;;;;;;;;;;;;;;5022039;28;92030;-37
2023/01/08 06:00:49;;;;;;;;;;;;;;;;;;5021219;28;92957;-37
2023/01/08 06:03:15;;;;;;;;;;;;;;;;;;5021648;28;92358;-37
2023/01/08 06:05:41;;;;;;;;;;;;;;;;;;5021853;28;92047;-37
2023/01/08 06:08:07;;;;;;;;;;;;;;;;;;5021295;28;93143;-37
2023/01/08 06:10:33;;;;;;;;;;;;;;;;;;5022276;28;91528;-37
2023/01/08 06:12:58;;;;;;;;;;;;;;;;;;5021675;28;91952;-37
2023/01/08 06:15:24;;;;;;;;;;;;;;;;;;5024073;28;93260;-37
2023/01/08 06:17:50;;;;;;;;;;;;;;;;;;5020913;28;92994;-37
2023/01/08 06:20:16;;;;;;;;;;;;;;;;;;5020969;28;92192;-37
2023/01/08 06:22:42;;;;;;;;;;;;;;;;;;5021652;28;92102;-37
2023/01/08 06:25:08;;;;;;;;;;;;;;;;;;5021483;28;92113;-37
2023/01/08 06:27:34;;;;;;;;;;;;;;;;;;5020967;28;92974;-37
2023/01/08 06:29:59;;;;;;;;;;;;;;;;;;5021419;28;92262;-37
2023/01/08 06:32:25;;;;;;;;;;;;;;;;;;5021084;28;92088;-37
2023/01/08 06:34:51;;;;;;;;;;;;;;;;;;5021267;28;92171;-37
2023/01/08 06:37:17;;;;;;;;;;;;;;;;;;5024270;28;92235;-37
2023/01/08 06:39:43;;;;;;;;;;;;;;;;;;5020337;28;94476;-37
2023/01/08 06:42:09;;;;;;;;;;;;;;;;;;5020256;28;93248;-37
2023/01/08 06:44:35;;;;;;;;;;;;;;;;;;5021071;28;92871;-37
2023/01/08 06:47:01;;;;;;;;;;;;;;;;;;5020327;28;93118;-37
2023/01/08 06:49:26;;;;;;;;;;;;;;;;;;5021067;28;92242;-37
2023/01/08 06:51:52;;;;;;;;;;;;;;;;;;5020988;28;92504;-37
2023/01/08 06:54:18;;;;;;;;;;;;;;;;;;5020468;28;92960;-37
2023/01/08 06:56:44;;;;;;;;;;;;;;;;;;5024067;28;92263;-37
2023/01/08 06:59:10;;;;;;;;;;;;;;;;;;5020937;28;92410;-37
2023/01/08 07:01:36;;;;;;;;;;;;;;;;;;5020787;28;92237;-37
2023/01/08 07:04:02;;;;;;;;;;;;;;;;;;5021005;28;92254;-37
2023/01/08 07:06:28;;;;;;;;;;;;;;;;;;5019482;28;93940;-37
2023/01/08 07:08:53;;;;;;;;;;;;;;;;;;5019919;28;92107;-37
2023/01/08 07:11:19;;;;;;;;;;;;;;;;;;5002278;28;95582;-37
2023/01/08 07:13:45;;;;;;;;;;;;;;;;;;5020176;28;93050;-37
2023/01/08 07:16:11;;;;;;;;;;;;;;;;;;5020366;28;92172;-37
2023/01/08 07:18:37;;;;;;;;;;;;;;;;;;5023374;28;92683;-37
2023/01/08 07:21:03;;;;;;;;;;;;;;;;;;5020428;28;92253;-37
2023/01/08 07:23:29;;;;;;;;;;;;;;;;;;5020931;28;91476;-37
2023/01/08 07:25:55;;;;;;;;;;;;;;;;;;5019898;28;92992;-37
2023/01/08 07:28:20;;;;;;;;;;;;;;;;;;5020368;28;92285;-37
2023/01/08 07:30:46;;;;;;;;;;;;;;;;;;5019739;28;93007;-37
2023/01/08 07:33:12;;;;;;;;;;;;;;;;;;5019980;28;93184;-37
2023/01/08 07:35:38;;;;;;;;;;;;;;;;;;5020323;28;92172;-37
2023/01/08 07:38:04;;;;;;;;;;;;;;;;;;5020316;28;92179;-37
2023/01/08 07:40:30;;;;;;;;;;;;;;;;;;5022742;28;93234;-37
2023/01/08 07:42:57;;;;;;;;;;;;;;;;;;5019847;28;92158;-37
2023/01/08 07:45:22;;;;;;;;;;;;;;;;;;5019446;28;93012;-37
2023/01/08 07:47:48;;;;;;;;;;;;;;;;;;5020342;28;91504;-37
2023/01/08 07:50:14;;;;;;;;;;;;;;;;;;5020063;28;91918;-37
2023/01/08 07:52:40;;;;;;;;;;;;;;;;;;5019726;28;93164;-37
2023/01/08 07:55:06;;;;;;;;;;;;;;;;;;5019355;28;93104;-37
2023/01/08 07:57:32;;;;;;;;;;;;;;;;;;5020087;28;92854;-37
2023/01/08 07:59:58;;;;;;;;;;;;;;;;;;5019346;28;93058;-37
2023/01/08 08:02:23;;;;;;;;;;;;;;;;;;5022847;28;92274;-37
2023/01/08 08:04:49;;;;;;;;;;;;;;;;;;5019385;28;92629;-37
2023/01/08 08:07:15;;;;;;;;;;;;;;;;;;5020005;28;92136;-37
2023/01/08 08:09:41;;;;;;;;;;;;;;;;;;5019911;28;92068;-37
2023/01/08 08:12:07;;;;;;;;;;;;;;;;;;5019739;28;91878;-37
2023/01/08 08:14:33;;;;;;;;;;;;;;;;;;5019669;28;92311;-37
2023/01/08 08:16:59;;;;;;;;;;;;;;;;;;5019674;28;92094;-37
2023/01/08 08:19:25;;;;;;;;;;;;;;;;;;5017846;28;93215;-37
2023/01/08 08:21:50;;;;;;;;;;;;;;;;;;5019617;28;92293;-37
2023/01/08 08:24:16;;;;;;;;;;;;;;;;;;5022132;28;92065;-38
2023/01/08 08:26:42;;;;;;;;;;;;;;;;;;5019478;28;92138;-37
2023/01/08 08:29:08;;;;;;;;;;;;;;;;;;5019660;28;92012;-37
2023/01/08 08:31:34;;;;;;;;;;;;;;;;;;5018875;28;93207;-37
2023/01/08 08:34:00;;;;;;;;;;;;;;;;;;5019608;28;92218;-37
2023/01/08 08:36:26;;;;;;;;;;;;;;;;;;5019841;28;91892;-37
2023/01/08 08:38:52;;;;;;;;;;;;;;;;;;5019060;28;92262;-37
2023/01/08 08:41:17;;;;;;;;;;;;;;;;;;5019086;28;92207;-37
2023/01/08 08:43:43;;;;;;;;;;;;;;;;;;5018854;28;93048;-37
2023/01/08 08:46:09;;;;;;;;;;;;;;;;;;5021771;28;93055;-37
2023/01/08 08:48:35;;;;;;;;;;;;;;;;;;5019620;28;92998;-37
2023/01/08 08:51:01;;;;;;;;;;;;;;;;;;5018735;28;93125;-37
2023/01/08 08:53:27;;;;;;;;;;;;;;;;;;5019091;28;92182;-37
2023/01/08 08:55:53;;;;;;;;;;;;;;;;;;5019302;28;91992;-37
2023/01/08 08:58:19;;;;;;;;;;;;;;;;;;5018716;28;93071;-37
2023/01/08 09:00:44;;;;;;;;;;;;;;;;;;5019388;28;91429;-37
2023/01/08 09:03:10;;;;;;;;;;;;;;;;;;5019136;28;92044;-37
2023/01/08 09:05:36;;;;;;;;;;;;;;;;;;5021833;28;93139;-37
2023/01/08 09:08:02;;;;;;;;;;;;;;;;;;5018503;28;93051;-37
2023/01/08 09:10:28;;;;;;;;;;;;;;;;;;5018409;28;93205;-37
2023/01/08 09:12:54;;;;;;;;;;;;;;;;;;5018870;28;92056;-37
2023/01/08 09:15:20;;;;;;;;;;;;;;;;;;5018991;28;91981;-37
2023/01/08 09:17:45;;;;;;;;;;;;;;;;;;5018322;28;93091;-37
2023/01/08 09:20:11;;;;;;;;;;;;;;;;;;5018752;28;92337;-37
2023/01/08 09:22:37;;;;;;;;;;;;;;;;;;5019289;28;93418;-37
2023/01/08 09:25:03;;;;;;;;;;;;;;;;;;5018708;28;92261;-37
2023/01/08 09:27:29;;;;;;;;;;;;;;;;;;5022113;28;92140;-37
2023/01/08 09:29:55;;;;;;;;;;;;;;;;;;5018305;28;93080;-37
2023/01/08 09:32:21;;;;;;;;;;;;;;;;;;5021285;28;93094;-37
2023/01/08 09:34:47;;;;;;;;;;;;;;;;;;5022101;28;92862;-37
2023/01/08 09:37:13;;;;;;;;;;;;;;;;;;5021377;28;93675;-37
2023/01/08 09:39:38;;;;;;;;;;;;;;;;;;5022111;28;92129;-37
2023/01/08 09:42:04;;;;;;;;;;;;;;;;;;5021757;28;92126;-37
2023/01/08 09:44:30;;;;;;;;;;;;;;;;;;5021538;28;92952;-37
2023/01/08 09:46:56;;;;;;;;;;;;;;;;;;5022046;28;92225;-37
2023/01/08 09:49:22;;;;;;;;;;;;;;;;;;5025153;28;91870;-37
2023/01/08 09:51:48;;;;;;;;;;;;;;;;;;5021908;28;92228;-37
2023/01/08 09:54:14;;;;;;;;;;;;;;;;;;5021971;28;91933;-37
2023/01/08 09:56:40;;;;;;;;;;;;;;;;;;5020753;28;94073;-37
2023/01/08 09:59:05;;;;;;;;;;;;;;;;;;5021867;28;92189;-37
2023/01/08 10:01:31;;;;;;;;;;;;;;;;;;5021617;28;92097;-37
2023/01/08 10:03:57;;;;;;;;;;;;;;;;;;5021403;28;93031;-37
2023/01/08 10:06:24;;;;;;;;;;;;;;;;;;5021791;28;92363;-37
2023/01/08 10:08:50;;;;;;;;;;;;;;;;;;5021746;28;91986;-37
2023/01/08 10:11:16;;;;;;;;;;;;;;;;;;5024309;28;92799;-37
2023/01/08 10:13:42;;;;;;;;;;;;;;;;;;5021878;28;93141;-37
2023/01/08 10:16:07;;;;;;;;;;;;;;;;;;5020898;28;92469;-37
2023/01/08 10:18:33;;;;;;;;;;;;;;;;;;5021451;28;92170;-38
2023/01/08 10:20:59;;;;;;;;;;;;;;;;;;5020992;28;92894;-37
2023/01/08 10:23:25;;;;;;;;;;;;;;;;;;5021030;28;93471;-37
2023/01/08 10:25:51;;;;;;;;;;;;;;;;;;5021421;28;92342;-37
2023/01/08 10:28:17;;;;;;;;;;;;;;;;;;5021281;28;91996;-37
2023/01/08 10:30:43;;;;;;;;;;;;;;;;;;5020661;28;92918;-37
2023/01/08 10:33:09;;;;;;;;;;;;;;;;;;5024429;28;92609;-37
2023/01/08 10:35:35;;;;;;;;;;;;;;;;;;5020795;28;93074;-37
2023/01/08 10:38:01;;;;;;;;;;;;;;;;;;5021478;28;91586;-37
2023/01/08 10:40:28;;;;;;;;;;;;;;;;;;5021314;28;92138;-37
2023/01/08 10:42:54;;;;;;;;;;;;;;;;;;5019881;28;93502;-37
2023/01/08 10:45:20;;;;;;;;;;;;;;;;;;5020237;28;93121;-37
2023/01/08 10:47:46;;;;;;;;;;;;;;;;;;5020924;28;94185;-37
2023/01/08 10:50:12;;;;;;;;;;;;;;;;;;5020586;28;92954;-37
2023/01/08 10:52:37;;;;;;;;;;;;;;;;;;5021237;28;92273;-37
2023/01/08 10:55:03;;;;;;;;;;;;;;;;;;5023647;28;92131;-37
2023/01/08 10:57:31;;;;;;;;;;;;;;;;;;5020990;28;92493;-37
2023/01/08 10:59:57;;;;;;;;;;;;;;;;;;5020455;28;93563;-38
2023/01/08 11:02:23;;;;;;;;;;;;;;;;;;5020855;28;92690;-37
2023/01/08 11:04:49;;;;;;;;;;;;;;;;;;5021008;28;93345;-37
2023/01/08 11:07:15;;;;;;;;;;;;;;;;;;5020908;28;92027;-37
2023/01/08 11:09:40;;;;;;;;;;;;;;;;;;5019561;28;94107;-37
2023/01/08 11:12:06;;;;;;;;;;;;;;;;;;5020357;28;92229;-37
2023/01/08 11:14:33;;;;;;;;;;;;;;;;;;5023120;28;92061;-37
2023/01/08 11:17:01;;;;;;;;;;;;;;;;;;5020581;28;92147;-37
2023/01/08 11:19:27;;;;;;;;;;;;;;;;;;5020565;28;92276;-37
2023/01/08 11:21:53;;;;;;;;;;;;;;;;;;5019966;28;93156;-37
2023/01/08 11:24:19;;;;;;;;;;;;;;;;;;5020405;28;92341;-37
2023/01/08 11:26:44;;;;;;;;;;;;;;;;;;5020999;28;92088;-37
2023/01/08 11:29:10;;;;;;;;;;;;;;;;;;5019882;28;93206;-37
2023/01/08 11:31:36;;;;;;;;;;;;;;;;;;5020289;28;92122;-37
2023/01/08 11:34:02;;;;;;;;;;;;;;;;;;5019974;28;93151;-37
2023/01/08 11:36:28;;;;;;;;;;;;;;;;;;5023020;28;93019;-37
2023/01/08 11:38:54;;;;;;;;;;;;;;;;;;5020202;28;92089;-37
2023/01/08 11:41:20;;;;;;;;;;;;;;;;;;5019134;28;92720;-37
2023/01/08 11:43:46;;;;;;;;;;;;;;;;;;5020225;28;92098;-37
2023/01/08 11:46:12;;;;;;;;;;;;;;;;;;5019897;28;93092;-37
2023/01/08 11:48:37;;;;;;;;;;;;;;;;;;5019705;28;93162;-37
2023/01/08 11:51:04;;;;;;;;;;;;;;;;;;5020577;28;92609;-37
2023/01/08 11:53:29;;;;;;;;;;;;;;;;;;5019110;28;92555;-37
2023/01/08 11:55:55;;;;;;;;;;;;;;;;;;5019647;28;92975;-37
2023/01/08 11:58:21;;;;;;;;;;;;;;;;;;5022310;28;93161;-37
2023/01/08 12:00:47;;;;;;;;;;;;;;;;;;5019020;28;94237;-38
2023/01/08 12:03:13;;;;;;;;;;;;;;;;;;5019954;28;92218;-37
2023/01/08 12:05:39;;;;;;;;;;;;;;;;;;5020026;28;92123;-37
2023/01/08 12:08:05;;;;;;;;;;;;;;;;;;5019333;28;93179;-37
2023/01/08 12:10:31;;;;;;;;;;;;;;;;;;5020018;28;92056;-37
2023/01/08 12:12:57;;;;;;;;;;;;;;;;;;5019473;28;92107;-37
2023/01/08 12:15:25;;;;;;;;;;;;;;;;;;5019360;28;92415;-37
2023/01/08 12:17:51;;;;;;;;;;;;;;;;;;5019487;28;92037;-37
2023/01/08 12:20:16;;;;;;;;;;;;;;;;;;5022201;28;92029;-37
2023/01/08 12:22:42;;;;;;;;;;;;;;;;;;5018937;28;93127;-37
2023/01/08 12:25:08;;;;;;;;;;;;;;;;;;5019748;28;92691;-37
2023/01/08 12:27:34;;;;;;;;;;;;;;;;;;5019170;28;93149;-37
2023/01/08 12:30:00;;;;;;;;;;;;;;;;;;5019511;28;92195;-37
2023/01/08 12:32:26;;;;;;;;;;;;;;;;;;5019812;28;91935;-38
2023/01/08 12:34:52;;;;;;;;;;;;;;;;;;5019042;28;92997;-37
2023/01/08 12:37:18;;;;;;;;;;;;;;;;;;5019479;28;92231;-37
2023/01/08 12:39:44;;;;;;;;;;;;;;;;;;5019810;28;91871;-37
2023/01/08 12:42:09;;;;;;;;;;;;;;;;;;5021528;28;93149;-37
2023/01/08 12:44:35;;;;;;;;;;;;;;;;;;5019104;28;91990;-37
2023/01/08 12:47:01;;;;;;;;;;;;;;;;;;5018019;28;94465;-37
2023/01/08 12:49:27;;;;;;;;;;;;;;;;;;5019402;28;92325;-37
2023/01/08 12:51:53;;;;;;;;;;;;;;;;;;5019225;28;92129;-37
2023/01/08 12:54:19;;;;;;;;;;;;;;;;;;5018877;28;93029;-37
2023/01/08 12:56:45;;;;;;;;;;;;;;;;;;5019328;28;92248;-38
2023/01/08 12:59:11;;;;;;;;;;;;;;;;;;5018867;28;92058;-37
2023/01/08 13:01:37;;;;;;;;;;;;;;;;;;5018467;28;93128;-37
2023/01/08 13:04:03;;;;;;;;;;;;;;;;;;5022780;28;91156;-37
2023/01/08 13:06:29;;;;;;;;;;;;;;;;;;5021650;28;94330;-38
2023/01/08 13:08:55;;;;;;;;;;;;;;;;;;5022839;28;92486;-37
2023/01/08 13:11:21;;;;;;;;;;;;;;;;;;5022085;28;92968;-37
2023/01/08 13:13:47;;;;;;;;;;;;;;;;;;5022050;28;93261;-37
2023/01/08 13:16:13;;;;;;;;;;;;;;;;;;5022631;28;92165;-37
2023/01/08 13:18:39;;;;;;;;;;;;;;;;;;5022292;28;93469;-37
2023/01/08 13:21:05;;;;;;;;;;;;;;;;;;5021873;28;92579;-37
2023/01/08 13:23:30;;;;;;;;;;;;;;;;;;5025535;28;92220;-37
2023/01/08 13:25:56;;;;;;;;;;;;;;;;;;5022039;28;93038;-37
2023/01/08 13:28:22;;;;;;;;;;;;;;;;;;5022640;28;91541;-37
2023/01/08 13:30:48;;;;;;;;;;;;;;;;;;5022582;28;91991;-37
2023/01/08 13:33:14;;;;;;;;;;;;;;;;;;5021578;28;94276;-37
2023/01/08 13:35:40;;;;;;;;;;;;;;;;;;5021659;28;93307;-37
2023/01/08 13:38:06;;;;;;;;;;;;;;;;;;5022343;28;92162;-37
2023/01/08 13:40:32;;;;;;;;;;;;;;;;;;5021400;28;93102;-37
2023/01/08 13:42:58;;;;;;;;;;;;;;;;;;5021493;28;92137;-37
2023/01/08 13:45:23;;;;;;;;;;;;;;;;;;5024798;28;92063;-37
2023/01/08 13:47:49;;;;;;;;;;;;;;;;;;5022335;28;92272;-37
2023/01/08 13:50:15;;;;;;;;;;;;;;;;;;5022210;28;92110;-37
2023/01/08 13:52:41;;;;;;;;;;;;;;;;;;5022049;28;92222;-37
2023/01/08 13:55:07;;;;;;;;;;;;;;;;;;5021863;28;92699;-37
2023/01/08 13:57:33;;;;;;;;;;;;;;;;;;5021816;28;92244;-37
2023/01/08 13:59:59;;;;;;;;;;;;;;;;;;5020749;28;93934;-37
2023/01/08 14:02:25;;;;;;;;;;;;;;;;;;5021885;28;92166;-37
2023/01/08 14:04:51;;;;;;;;;;;;;;;;;;5021879;28;92053;-37
2023/01/08 14:07:17;;;;;;;;;;;;;;;;;;5024498;28;93003;-37
2023/01/08 14:09:43;;;;;;;;;;;;;;;;;;5021748;28;92045;-37
2023/01/08 14:12:09;;;;;;;;;;;;;;;;;;5021175;28;93067;-37
2023/01/08 14:14:34;;;;;;;;;;;;;;;;;;5021516;28;92196;-37
2023/01/08 14:17:01;;;;;;;;;;;;;;;;;;5021497;28;91948;-37
2023/01/08 14:19:27;;;;;;;;;;;;;;;;;;5020990;28;92070;-37
2023/01/08 14:21:53;;;;;;;;;;;;;;;;;;5021088;28;92129;-37
2023/01/08 14:24:19;;;;;;;;;;;;;;;;;;5021034;28;92998;-37
2023/01/08 14:26:45;;;;;;;;;;;;;;;;;;5020658;28;94520;-37
2023/01/08 14:29:13;;;;;;;;;;;;;;;;;;5024316;28;92139;-37
2023/01/08 14:31:39;;;;;;;;;;;;;;;;;;5020803;28;94675;-37
2023/01/08 14:34:05;;;;;;;;;;;;;;;;;;5021251;28;92348;-37
2023/01/08 14:36:31;;;;;;;;;;;;;;;;;;5021476;28;92047;-37
2023/01/08 14:38:57;;;;;;;;;;;;;;;;;;5020890;28;93167;-37
2023/01/08 14:41:23;;;;;;;;;;;;;;;;;;5021247;28;91631;-37
2023/01/08 14:43:49;;;;;;;;;;;;;;;;;;5021411;28;92123;-37
2023/01/08 14:46:15;;;;;;;;;;;;;;;;;;5020699;28;92343;-37
2023/01/08 14:48:41;;;;;;;;;;;;;;;;;;5020386;28;93139;-37
2023/01/08 14:51:06;;;;;;;;;;;;;;;;;;5023551;28;93396;-37
2023/01/08 14:53:32;;;;;;;;;;;;;;;;;;5021089;28;92262;-37
2023/01/08 14:55:58;;;;;;;;;;;;;;;;;;5021032;28;92011;-37
2023/01/08 14:58:24;;;;;;;;;;;;;;;;;;5020511;28;93180;-37
2023/01/08 15:00:50;;;;;;;;;;;;;;;;;;5020933;28;92163;-37
2023/01/08 15:03:16;;;;;;;;;;;;;;;;;;5021065;28;91967;-37
2023/01/08 15:05:42;;;;;;;;;;;;;;;;;;5020943;28;92837;-37
2023/01/08 15:08:08;;;;;;;;;;;;;;;;;;5020812;28;92723;-37
2023/01/08 15:10:33;;;;;;;;;;;;;;;;;;5023470;28;92576;-37
2023/01/08 15:13:02;;;;;;;;;;;;;;;;;;5019422;28;93097;-37
2023/01/08 15:15:28;;;;;;;;;;;;;;;;;;5020423;28;94261;-37
2023/01/08 15:17:54;;;;;;;;;;;;;;;;;;5020167;28;93204;-37
2023/01/08 15:20:20;;;;;;;;;;;;;;;;;;5020692;28;93263;-37
2023/01/08 15:22:46;;;;;;;;;;;;;;;;;;5020685;28;92009;-37
2023/01/08 15:25:11;;;;;;;;;;;;;;;;;;5019795;28;94221;-37
2023/01/08 15:27:38;;;;;;;;;;;;;;;;;;5019998;28;92212;-37
2023/01/08 15:30:04;;;;;;;;;;;;;;;;;;5020300;28;91923;-37
2023/01/08 15:32:31;;;;;;;;;;;;;;;;;;5022964;28;92939;-37
2023/01/08 15:34:57;;;;;;;;;;;;;;;;;;5020032;28;93289;-37
2023/01/08 15:37:23;;;;;;;;;;;;;;;;;;5019220;28;93955;-37
2023/01/08 15:39:48;;;;;;;;;;;;;;;;;;5020195;28;92298;-38
2023/01/08 15:44:59;;;;;;;;;;;;;;;;;;5017532;28;92162;-37
2023/01/08 15:47:25;;;;;;;;;;;;;;;;;;5020209;28;92140;-37
2023/01/08 15:49:56;;;;;;;;;;;;;;;;;;5100862;27;1363643;-37
2023/01/08 15:52:22;;;;;;;;;;;;;;;;;;5147834;27;81145;-37
2023/01/08 15:54:48;;;;;;;;;;;;;;;;;;5146719;27;81862;-37
2023/01/08 15:57:14;;;;;;;;;;;;;;;;;;5147136;27;81117;-37
2023/01/08 15:59:40;;;;;;;;;;;;;;;;;;5147212;27;80224;-37
2023/01/08 16:02:06;;;;;;;;;;;;;;;;;;5147217;27;80774;-37
2023/01/08 16:04:31;;;;;;;;;;;;;;;;;;5147101;27;81434;-37
2023/01/08 16:06:57;;;;;;;;;;;;;;;;;;5128038;27;80422;-37
2023/01/08 16:09:23;;;;;;;;;;;;;;;;;;5149354;27;80303;-37
2023/01/08 16:11:49;;;;;;;;;;;;;;;;;;5147124;27;80438;-37
2023/01/08 16:14:15;;;;;;;;;;;;;;;;;;5128623;27;80257;-37
2023/01/08 16:16:41;;;;;;;;;;;;;;;;;;5125802;27;80308;-37
2023/01/08 16:19:07;;;;;;;;;;;;;;;;;;5125858;27;80420;-37
2023/01/08 16:21:33;;;;;;;;;;;;;;;;;;5125930;27;80216;-37
2023/01/08 16:23:59;;;;;;;;;;;;;;;;;;5125687;27;81343;-37
2023/01/08 16:26:25;;;;;;;;;;;;;;;;;;5125679;27;80235;-37
2023/01/08 16:28:51;;;;;;;;;;;;;;;;;;5125890;27;80301;-37
2023/01/08 16:31:17;;;;;;;;;;;;;;;;;;5128504;27;80071;-37
2023/01/08 16:33:42;;;;;;;;;;;;;;;;;;5125690;27;80220;-37
2023/01/08 16:36:08;;;;;;;;;;;;;;;;;;5125649;27;80386;-37
2023/01/08 16:38:34;;;;;;;;;;;;;;;;;;5125383;27;80392;-37